createdAt,value
2022-09-03T00:01:51.925Z,1.47
2022-09-03T00:04:40.958Z,1.40
2022-09-03T00:07:16.339Z,1.50
2022-09-03T00:09:47.594Z,1.50
2022-09-03T00:12:24.920Z,1.63
2022-09-03T00:15:08.424Z,1.30
2022-09-03T00:17:41.343Z,1.57
2022-09-03T00:20:19.380Z,1.30
2022-09-03T00:22:51.894Z,1.60
2022-09-03T00:25:25.073Z,1.30
2022-09-03T00:27:55.912Z,1.40
2022-09-03T00:30:24.431Z,1.40
2022-09-03T00:33:07.022Z,1.40
2022-09-03T00:35:41.686Z,1.40
2022-09-03T00:38:09.259Z,1.63
2022-09-03T00:40:54.620Z,1.50
2022-09-03T00:43:46.138Z,1.50
2022-09-03T00:46:27.185Z,1.57
2022-09-03T00:49:21.575Z,1.40
2022-09-03T00:52:06.503Z,1.50
2022-09-03T00:54:55.340Z,1.43
2022-09-03T00:57:30.904Z,1.37
2022-09-03T01:00:05.713Z,1.50
2022-09-03T01:02:46.229Z,1.30
2022-09-03T01:05:19.960Z,1.30
2022-09-03T01:08:03.686Z,1.20
2022-09-03T01:10:48.490Z,1.40
2022-09-03T01:13:24.142Z,1.27
2022-09-03T01:16:12.965Z,1.53
2022-09-03T01:18:56.687Z,1.30
2022-09-03T01:21:46.741Z,1.30
2022-09-03T01:24:32.134Z,1.30
2022-09-03T01:27:20.552Z,1.27
2022-09-03T01:30:10.325Z,1.50
2022-09-03T01:32:58.285Z,1.30
2022-09-03T01:35:49.939Z,1.47
2022-09-03T01:38:46.678Z,1.40
2022-09-03T01:42:09.741Z,1.23
2022-09-03T01:44:48.429Z,1.40
2022-09-03T01:47:31.930Z,1.10
2022-09-03T01:50:25.042Z,1.10
2022-09-03T01:53:36.941Z,1.30
2022-09-03T01:56:35.752Z,1.20
2022-09-03T01:59:33.698Z,1.30
2022-09-03T02:02:08.883Z,1.27
2022-09-03T02:04:35.656Z,1.23
2022-09-03T02:07:03.581Z,1.30
2022-09-03T02:09:32.475Z,1.50
2022-09-03T02:12:08.668Z,1.40
2022-09-03T02:14:36.144Z,1.50
2022-09-03T02:17:03.760Z,1.30
2022-09-03T02:19:30.794Z,1.30
2022-09-03T02:21:58.139Z,1.27
2022-09-03T02:24:26.196Z,1.40
2022-09-03T02:26:53.670Z,1.50
2022-09-03T02:29:20.682Z,1.33
2022-09-03T02:31:47.331Z,1.30
2022-09-03T02:34:14.437Z,1.33
2022-09-03T02:36:46.324Z,1.40
2022-09-03T02:39:16.698Z,1.57
2022-09-03T02:41:44.491Z,1.47
2022-09-03T02:44:23.978Z,1.30
2022-09-03T02:46:55.458Z,1.53
2022-09-03T02:49:22.096Z,1.20
2022-09-03T02:51:48.808Z,1.47
2022-09-03T02:54:20.264Z,1.50
2022-09-03T02:56:49.615Z,1.10
2022-09-03T02:59:17.853Z,1.30
2022-09-03T03:01:46.505Z,1.40
2022-09-03T03:04:13.558Z,1.57
2022-09-03T03:06:40.212Z,1.60
2022-09-03T03:09:07.030Z,1.40
2022-09-03T03:11:36.088Z,1.30
2022-09-03T03:14:03.033Z,1.40
2022-09-03T03:16:29.690Z,1.60
2022-09-03T03:18:56.984Z,1.40
2022-09-03T03:21:23.613Z,1.37
2022-09-03T03:23:50.267Z,1.60
2022-09-03T03:26:19.092Z,1.43
2022-09-03T03:28:48.677Z,1.67
2022-09-03T03:31:18.068Z,1.50
2022-09-03T03:33:45.021Z,1.53
2022-09-03T03:36:14.530Z,1.50
2022-09-03T03:38:42.445Z,1.50
2022-09-03T03:41:14.916Z,1.60
2022-09-03T03:43:41.940Z,1.30
2022-09-03T03:46:08.978Z,1.50
2022-09-03T03:48:36.266Z,1.60
2022-09-03T03:51:04.954Z,1.40
2022-09-03T03:53:31.962Z,1.63
2022-09-03T03:56:00.140Z,1.63
2022-09-03T03:58:27.802Z,1.50
2022-09-03T04:00:54.491Z,1.40
2022-09-03T04:03:21.600Z,1.70
2022-09-03T04:06:07.213Z,1.50
2022-09-03T04:08:39.298Z,1.50
2022-09-03T04:11:09.037Z,1.43
2022-09-03T04:13:37.906Z,1.60
2022-09-03T04:16:07.199Z,1.70
2022-09-03T04:18:35.198Z,1.10
2022-09-03T04:21:14.153Z,1.37
2022-09-03T04:23:42.974Z,1.43
2022-09-03T04:26:12.218Z,1.50
2022-09-03T04:28:39.304Z,1.50
2022-09-03T04:31:08.364Z,1.73
2022-09-03T04:33:38.059Z,1.30
2022-09-03T04:36:13.771Z,1.63
2022-09-03T04:38:42.497Z,1.60
2022-09-03T04:41:11.821Z,1.57
2022-09-03T04:43:39.458Z,1.47
2022-09-03T04:46:10.880Z,1.57
2022-09-03T04:48:44.602Z,1.57
2022-09-03T04:51:13.490Z,1.53
2022-09-03T04:53:42.240Z,1.70
2022-09-03T04:56:14.149Z,1.80
2022-09-03T04:58:44.698Z,1.50
2022-09-03T05:01:13.440Z,1.40
2022-09-03T05:03:40.117Z,1.27
2022-09-03T05:06:08.310Z,1.60
2022-09-03T05:08:36.748Z,1.63
2022-09-03T05:11:04.528Z,1.40
2022-09-03T05:13:31.525Z,1.50
2022-09-03T05:16:03.146Z,1.60
2022-09-03T05:18:30.183Z,1.70
2022-09-03T05:21:00.915Z,1.50
2022-09-03T05:23:28.715Z,1.77
2022-09-03T05:25:58.199Z,1.50
2022-09-03T05:28:30.258Z,1.60
2022-09-03T05:31:01.835Z,1.50
2022-09-03T05:33:28.701Z,1.53
2022-09-03T05:36:01.600Z,1.70
2022-09-03T05:38:28.270Z,1.53
2022-09-03T05:40:59.354Z,1.70
2022-09-03T05:43:26.190Z,1.57
2022-09-03T05:45:56.844Z,1.60
2022-09-03T05:48:23.630Z,1.73
2022-09-03T05:50:50.283Z,1.47
2022-09-03T05:53:18.043Z,1.40
2022-09-03T05:55:44.677Z,1.60
2022-09-03T05:58:11.310Z,1.40
2022-09-03T06:00:37.931Z,1.60
2022-09-03T06:03:04.819Z,1.70
2022-09-03T06:05:31.630Z,1.70
2022-09-03T06:07:58.279Z,1.50
2022-09-03T06:10:27.569Z,1.80
2022-09-03T06:13:03.949Z,1.47
2022-09-03T06:15:30.651Z,1.50
2022-09-03T06:17:57.334Z,1.73
2022-09-03T06:20:27.905Z,1.60
2022-09-03T06:22:55.318Z,1.40
2022-09-03T06:25:22.566Z,1.50
2022-09-03T06:27:49.543Z,1.53
2022-09-03T06:30:17.029Z,1.47
2022-09-03T06:32:45.217Z,1.40
2022-09-03T06:35:12.018Z,1.50
2022-09-03T06:37:42.559Z,1.40
2022-09-03T06:40:12.498Z,1.40
2022-09-03T06:42:45.747Z,1.47
2022-09-03T06:45:12.849Z,1.53
2022-09-03T06:47:39.522Z,1.50
2022-09-03T06:50:06.675Z,1.40
2022-09-03T06:52:33.354Z,1.53
2022-09-03T06:55:01.641Z,1.70
2022-09-03T06:57:28.389Z,1.40
2022-09-03T06:59:55.435Z,1.53
2022-09-03T07:02:23.032Z,1.70
2022-09-03T07:04:49.977Z,1.70
2022-09-03T07:07:16.654Z,1.30
2022-09-03T07:09:47.714Z,1.60
2022-09-03T07:12:18.232Z,1.53
2022-09-03T07:49:36.236Z,1.70
2022-09-03T07:52:03.296Z,1.53
2022-09-03T07:54:30.462Z,1.53
2022-09-03T07:56:57.575Z,1.60
2022-09-03T07:59:24.459Z,1.70
2022-09-03T08:01:51.081Z,1.73
2022-09-03T08:04:17.855Z,2.00
2022-09-03T08:06:44.547Z,1.70
2022-09-03T08:09:13.714Z,1.70
2022-09-03T08:11:43.285Z,1.80
2022-09-03T08:14:11.800Z,1.70
2022-09-03T08:16:44.303Z,2.10
2022-09-03T08:19:13.595Z,1.63
2022-09-03T08:21:43.715Z,1.90
2022-09-03T08:24:11.669Z,1.97
2022-09-03T08:26:41.637Z,2.00
2022-09-03T08:29:08.731Z,1.67
2022-09-03T08:31:36.647Z,1.80
2022-09-03T08:34:06.797Z,1.97
2022-09-03T08:36:36.247Z,1.80
2022-09-03T08:39:08.066Z,1.77
2022-09-03T08:41:53.282Z,1.80
2022-09-03T08:44:28.704Z,1.77
2022-09-03T08:47:14.293Z,1.90
2022-09-03T08:49:48.229Z,1.80
2022-09-03T08:52:26.528Z,2.00
2022-09-03T08:54:59.687Z,1.80
2022-09-03T08:57:26.438Z,2.00
2022-09-03T08:59:55.621Z,2.00
2022-09-03T09:02:39.608Z,2.10
2022-09-03T09:05:14.344Z,2.03
2022-09-03T09:07:53.869Z,2.00
2022-09-03T09:10:33.224Z,2.13
2022-09-03T09:13:18.747Z,1.97
2022-09-03T09:16:13.312Z,2.00
2022-09-03T09:19:11.405Z,2.47
2022-09-03T09:21:46.128Z,2.30
2022-09-03T09:24:23.331Z,2.47
2022-09-03T09:26:58.967Z,2.53
2022-09-03T09:29:29.118Z,2.50
2022-09-03T09:31:55.959Z,2.30
2022-09-03T09:34:22.714Z,2.27
2022-09-03T09:36:52.661Z,2.30
2022-09-03T09:39:20.128Z,2.33
2022-09-03T09:42:08.224Z,2.30
2022-09-03T09:44:41.350Z,2.47
2022-09-03T09:47:38.767Z,2.20
2022-09-03T09:50:25.097Z,2.30
2022-09-03T09:53:14.420Z,2.40
2022-09-03T09:55:55.209Z,2.50
2022-09-03T09:58:24.005Z,2.10
2022-09-03T10:00:59.877Z,2.27
2022-09-03T10:03:29.734Z,2.07
2022-09-03T10:06:31.281Z,2.07
2022-09-03T10:09:12.828Z,2.40
2022-09-03T10:11:50.805Z,2.40
2022-09-03T10:14:35.065Z,2.10
2022-09-03T10:17:37.346Z,2.30
2022-09-03T10:20:32.046Z,2.40
2022-09-03T10:23:04.840Z,2.20
2022-09-03T10:25:53.617Z,2.50
2022-09-03T10:28:24.609Z,2.40
2022-09-03T10:31:26.069Z,2.03
2022-09-03T10:34:08.585Z,2.23
2022-09-03T10:36:51.370Z,2.20
2022-09-03T10:39:43.348Z,2.17
2022-09-03T10:42:31.050Z,1.73
2022-09-03T10:45:16.515Z,2.27
2022-09-03T10:48:12.232Z,2.27
2022-09-03T10:50:41.936Z,2.30
2022-09-03T10:53:35.060Z,2.20
2022-09-03T10:56:10.391Z,1.90
2022-09-03T10:58:54.595Z,2.33
2022-09-03T11:01:29.948Z,2.20
2022-09-03T11:04:15.151Z,2.00
2022-09-03T11:06:55.879Z,1.83
2022-09-03T11:09:34.005Z,2.00
2022-09-03T11:12:06.127Z,2.00
2022-09-03T11:14:44.614Z,1.90
2022-09-03T11:17:21.093Z,2.20
2022-09-03T11:19:56.444Z,2.03
2022-09-03T11:22:23.586Z,2.17
2022-09-03T11:24:55.386Z,2.07
2022-09-03T11:27:33.016Z,2.10
2022-09-03T11:30:04.961Z,2.00
2022-09-03T11:32:40.977Z,2.17
2022-09-03T11:35:17.008Z,2.10
2022-09-03T11:37:58.420Z,2.13
2022-09-03T11:40:36.433Z,2.20
2022-09-03T11:43:08.651Z,2.20
2022-09-03T11:45:37.810Z,2.00
2022-09-03T11:48:18.645Z,1.80
2022-09-03T11:50:55.756Z,2.30
2022-09-03T11:53:28.248Z,2.67
2022-09-03T11:56:14.986Z,2.10
2022-09-03T11:58:43.468Z,2.30
2022-09-03T12:01:18.236Z,2.23
2022-09-03T12:03:52.919Z,2.03
2022-09-03T12:06:48.937Z,2.30
2022-09-03T12:09:51.601Z,2.30
2022-09-03T12:12:47.101Z,2.30
2022-09-03T12:15:45.202Z,2.40
2022-09-03T12:18:34.824Z,2.40
2022-09-03T12:21:02.968Z,2.63
2022-09-03T12:23:51.431Z,2.70
2022-09-03T12:26:27.265Z,2.20
2022-09-03T12:28:56.260Z,2.60
2022-09-03T12:31:29.733Z,2.27
2022-09-03T12:34:00.904Z,2.40
2022-09-03T12:36:49.144Z,2.37
2022-09-03T12:40:04.717Z,2.57
2022-09-03T12:42:12.676Z,2.73
2022-09-03T12:44:41.932Z,2.30
2022-09-03T12:47:37.267Z,2.43
2022-09-03T12:50:22.713Z,2.40
2022-09-03T12:52:53.170Z,2.60
2022-09-03T12:55:28.525Z,2.60
2022-09-03T12:58:13.826Z,2.47
2022-09-03T13:00:55.155Z,2.57
2022-09-03T13:03:38.166Z,2.80
2022-09-03T13:06:10.741Z,2.63
2022-09-03T13:09:00.059Z,2.87
2022-09-03T13:11:27.722Z,2.80
2022-09-03T13:13:55.478Z,2.47
2022-09-03T13:16:45.198Z,2.37
2022-09-03T13:19:21.014Z,2.30
2022-09-03T13:22:15.373Z,2.27
2022-09-03T13:24:44.795Z,2.30
2022-09-03T13:27:30.261Z,2.07
2022-09-03T13:30:13.331Z,2.13
2022-09-03T13:32:58.109Z,2.50
2022-09-03T13:35:45.062Z,2.20
2022-09-03T13:38:37.631Z,2.17
2022-09-03T13:41:35.481Z,1.73
2022-09-03T13:44:13.269Z,1.60
2022-09-03T13:46:50.759Z,1.73
2022-09-03T13:49:42.030Z,1.80
2022-09-03T13:52:22.704Z,1.50
2022-09-03T13:54:56.222Z,1.63
2022-09-03T13:58:02.204Z,1.40
2022-09-03T14:00:38.454Z,1.73
2022-09-03T14:03:35.162Z,1.40
2022-09-03T14:06:28.774Z,1.40
2022-09-03T14:09:20.357Z,1.40
2022-09-03T14:12:17.644Z,1.70
2022-09-03T14:14:55.542Z,1.43
2022-09-03T14:17:42.034Z,1.67
2022-09-03T14:20:24.178Z,1.50
2022-09-03T14:22:57.427Z,1.47
2022-09-03T14:25:26.275Z,1.60
2022-09-03T14:27:54.754Z,1.30
2022-09-03T14:30:55.755Z,1.50
2022-09-03T14:33:57.710Z,1.60
2022-09-03T14:36:53.093Z,1.50
2022-09-03T14:39:19.868Z,1.30
2022-09-03T14:42:08.550Z,1.57
2022-09-03T14:44:58.519Z,1.47
2022-09-03T14:47:54.570Z,1.50
2022-09-03T14:50:29.034Z,1.47
2022-09-03T14:52:58.610Z,1.40
2022-09-03T14:55:31.549Z,1.40
2022-09-03T14:58:01.076Z,1.30
2022-09-03T15:00:50.438Z,1.20
2022-09-03T15:03:44.641Z,1.43
2022-09-03T15:06:30.712Z,1.20
2022-09-03T15:09:18.104Z,1.57
2022-09-03T15:11:56.072Z,1.40
2022-09-03T15:14:39.071Z,1.40
2022-09-03T15:17:31.712Z,1.63
2022-09-03T15:20:11.580Z,1.80
2022-09-03T15:23:13.216Z,1.40
2022-09-03T15:26:17.678Z,1.60
2022-09-03T15:29:06.746Z,1.60
2022-09-03T15:31:45.852Z,1.63
2022-09-03T15:34:32.361Z,1.50
2022-09-03T15:37:05.201Z,1.60
2022-09-03T15:39:35.684Z,1.43
2022-09-03T15:42:08.305Z,1.67
2022-09-03T15:44:57.062Z,1.50
2022-09-03T15:47:55.983Z,1.53
2022-09-03T15:50:27.589Z,1.40
2022-09-03T15:53:06.502Z,1.43
2022-09-03T15:55:42.345Z,1.40
2022-09-03T15:58:19.289Z,1.57
2022-09-03T16:00:55.245Z,1.43
2022-09-03T16:03:45.383Z,1.50
2022-09-03T16:06:38.327Z,1.30
2022-09-03T16:09:44.956Z,1.40
2022-09-03T16:12:18.735Z,1.37
2022-09-03T16:15:02.103Z,1.30
2022-09-03T16:17:34.170Z,1.30
2022-09-03T16:20:16.272Z,1.37
2022-09-03T16:22:47.311Z,1.50
2022-09-03T16:25:23.168Z,1.60
2022-09-03T16:28:10.239Z,1.27
2022-09-03T16:30:39.491Z,1.30
2022-09-03T16:33:09.431Z,1.40
2022-09-03T16:36:01.465Z,1.30
2022-09-03T16:38:28.045Z,1.30
2022-09-03T16:41:24.355Z,1.20
2022-09-03T16:44:05.995Z,1.40
2022-09-03T16:46:51.122Z,1.53
2022-09-03T16:49:38.589Z,1.40
2022-09-03T16:52:37.559Z,1.40
2022-09-03T16:55:08.538Z,1.30
2022-09-03T16:57:57.347Z,1.50
2022-09-03T17:00:28.646Z,1.40
2022-09-03T17:03:26.450Z,1.40
2022-09-03T17:05:56.539Z,1.20
2022-09-03T17:08:26.556Z,1.50
2022-09-03T17:11:31.165Z,1.47
2022-09-03T17:14:23.200Z,1.63
2022-09-03T17:16:56.109Z,1.50
2022-09-03T17:19:28.934Z,1.53
2022-09-03T17:22:19.401Z,1.40
2022-09-03T17:25:01.942Z,1.57
2022-09-03T17:27:39.430Z,1.60
2022-09-03T17:30:09.973Z,1.60
2022-09-03T17:32:57.200Z,1.40
2022-09-03T17:35:38.247Z,1.60
2022-09-03T17:38:43.086Z,1.57
2022-09-03T17:41:22.589Z,1.30
2022-09-03T17:44:01.218Z,1.60
2022-09-03T17:46:42.837Z,1.40
2022-09-03T17:49:22.046Z,1.30
2022-09-03T17:52:01.723Z,1.37
2022-09-03T17:54:44.548Z,1.60
2022-09-03T17:57:26.680Z,1.67
2022-09-03T17:59:56.246Z,1.30
2022-09-03T18:02:44.049Z,1.70
2022-09-03T18:05:24.390Z,1.47
2022-09-03T18:08:07.502Z,1.60
2022-09-03T18:10:36.846Z,1.60
2022-09-03T18:13:14.619Z,1.60
2022-09-03T18:15:54.365Z,1.60
2022-09-03T18:18:51.414Z,1.60
2022-09-03T18:21:40.644Z,1.50
2022-09-03T18:24:52.458Z,1.73
2022-09-03T18:28:02.118Z,1.73
2022-09-03T18:30:47.756Z,1.77
2022-09-03T18:33:33.856Z,1.87
2022-09-03T18:36:19.274Z,1.47
2022-09-03T18:39:04.792Z,1.37
2022-09-03T18:41:54.152Z,1.77
2022-09-03T18:45:12.017Z,1.80
2022-09-03T18:48:40.045Z,1.53
2022-09-03T18:51:45.126Z,1.73
2022-09-03T18:55:07.305Z,1.70
2022-09-03T18:58:05.447Z,1.77
2022-09-03T19:00:55.270Z,1.53
2022-09-03T19:03:48.229Z,1.90
2022-09-03T19:06:45.784Z,1.80
2022-09-03T19:09:59.259Z,2.17
2022-09-03T19:13:02.777Z,2.20
2022-09-03T19:15:53.254Z,2.33
2022-09-03T19:18:50.884Z,2.07
2022-09-03T19:21:50.619Z,2.40
2022-09-03T19:24:39.776Z,2.50
2022-09-03T19:27:51.694Z,2.53
2022-09-03T19:30:57.999Z,2.40
2022-09-03T19:33:52.624Z,2.70
2022-09-03T19:36:41.077Z,2.27
2022-09-03T19:39:49.601Z,2.17
2022-09-03T19:43:03.906Z,2.30
2022-09-03T19:45:56.620Z,2.23
2022-09-03T19:48:48.202Z,2.60
2022-09-03T19:51:37.062Z,2.20
2022-09-03T19:54:23.468Z,2.17
2022-09-03T19:57:09.015Z,2.00
2022-09-03T19:59:58.520Z,2.20
2022-09-03T20:02:44.186Z,2.37
2022-09-03T20:05:37.295Z,2.30
2022-09-03T20:08:23.115Z,2.30
2022-09-03T20:10:52.233Z,2.10
2022-09-03T20:13:20.690Z,2.03
2022-09-03T20:15:57.604Z,2.40
2022-09-03T20:18:35.541Z,2.30
2022-09-03T20:21:17.266Z,2.10
2022-09-03T20:24:11.310Z,2.30
2022-09-03T20:26:59.587Z,2.50
2022-09-03T20:29:41.840Z,2.90
2022-09-03T20:32:16.078Z,2.70
2022-09-03T20:34:59.517Z,2.83
2022-09-03T20:37:41.050Z,3.10
2022-09-03T20:40:29.882Z,2.70
2022-09-03T20:43:38.674Z,2.73
2022-09-03T20:46:12.952Z,2.60
2022-09-03T20:48:54.313Z,2.70
2022-09-03T20:51:24.500Z,2.50
2022-09-03T20:54:32.014Z,2.47
2022-09-03T20:57:21.848Z,2.40
2022-09-03T21:00:08.526Z,2.57
2022-09-03T21:03:03.677Z,2.30
2022-09-03T21:05:34.915Z,2.20
2022-09-03T21:08:47.743Z,2.40
2022-09-03T21:11:51.983Z,2.37
2022-09-03T21:14:28.610Z,2.23
2022-09-03T21:17:19.977Z,2.40
2022-09-03T21:20:10.655Z,2.00
2022-09-03T21:22:53.696Z,2.10
2022-09-03T21:25:37.326Z,1.90
2022-09-03T21:28:14.596Z,2.03
2022-09-03T21:30:47.080Z,1.97
2022-09-03T21:33:27.044Z,2.07
2022-09-03T21:36:07.958Z,2.20
2022-09-03T21:38:37.408Z,2.10
2022-09-03T21:41:26.240Z,1.90
2022-09-03T21:43:56.380Z,1.77
2022-09-03T21:46:31.357Z,2.10
2022-09-03T21:49:00.760Z,2.27
2022-09-03T21:51:52.962Z,2.00
2022-09-03T21:54:33.699Z,2.20
2022-09-03T21:57:17.481Z,2.20
2022-09-03T21:59:57.374Z,2.10
2022-09-03T22:02:26.144Z,2.10
2022-09-03T22:04:54.665Z,2.27
2022-09-03T22:07:58.942Z,2.17
2022-09-03T22:10:40.397Z,2.10
2022-09-03T22:13:27.405Z,2.20
2022-09-03T22:16:01.542Z,2.30
2022-09-03T22:18:31.070Z,2.47
2022-09-03T22:21:14.868Z,2.47
2022-09-03T22:24:19.052Z,2.60
2022-09-03T22:27:04.871Z,2.50
2022-09-03T22:29:58.664Z,2.50
2022-09-03T22:32:47.436Z,2.40
2022-09-03T22:35:14.030Z,2.47
2022-09-03T22:37:59.370Z,2.70
2022-09-03T22:40:33.825Z,2.53
2022-09-03T22:43:24.873Z,2.60
2022-09-03T22:45:54.548Z,2.63
2022-09-03T22:48:50.770Z,2.30
2022-09-03T22:51:21.652Z,2.70
2022-09-03T22:54:00.226Z,2.57
2022-09-03T22:56:30.971Z,2.70
2022-09-03T22:59:14.120Z,2.60
2022-09-03T23:01:49.477Z,2.83
2022-09-03T23:04:36.989Z,2.60
2022-09-03T23:07:13.032Z,2.87
2022-09-03T23:09:41.515Z,2.97
2022-09-03T23:12:16.908Z,2.80
2022-09-03T23:14:51.331Z,3.00
2022-09-03T23:20:21.147Z,3.10
2022-09-03T23:22:59.668Z,3.07
2022-09-03T23:25:41.984Z,2.70
2022-09-03T23:28:24.181Z,2.97
2022-09-03T23:30:51.135Z,2.80
2022-09-03T23:33:17.846Z,2.40
2022-09-03T23:36:02.847Z,2.73
2022-09-03T23:38:48.514Z,2.50
2022-09-03T23:41:25.320Z,2.43
2022-09-03T23:44:04.212Z,2.70
2022-09-03T23:46:54.423Z,2.30
2022-09-03T23:49:36.313Z,2.60
2022-09-03T23:52:28.979Z,2.33
2022-09-03T23:55:27.093Z,2.13
2022-09-03T23:58:39.711Z,2.13
